Meteo Giornale » Osservazioni meteo Cile » Osorno-Canal Baj

ore: 14:00 - Osservazioni Meteo Osorno-Canal Baj
Lat. 40° 36' S Lon. 73° 2' W Alt. 65 metri s.l.m.

nuvoloso_piovaschi

11 °C

Pioggia

Temp. 24 Ore

7 °C

11 °C

Nord-Est

14.8 Km/h

Dew point 8 °C

Umidità 81 %

Visibilità  10 Km

Il sole sorge alle ore 07:15

Il sole tramonta alle ore 18:28

Data e Ora Cielo e Fenomeni T °C DP °C Um. % Pres. hPa Vis. km Vento km/h
Oggi h: 14:00 nuvoloso_piovaschi Pioggia 11 8 81 1017 10 NE 14.8
Oggi h: 13:00 nuvoloso_piovaschi Pioggia 10 8 87 1018 10 N 9.3
Oggi h: 12:00 nuvoloso_piovaschi Pioggia 9 8 93 1019 10 N/NE 7.4
Oggi h: 11:00 coperto Coperto 9 7 87 1019 10 N/NE 13
Oggi h: 10:00 coperto Coperto 9 7 87 1019 10 N/NE 11.1
Oggi h: 09:00 molto_nuvoloso Molto Nuvoloso 8 6 87 1019 10 N 5.5
Oggi h: 08:00 sereno Sereno 7 6 93 1019 10 N/NE 7.4
Oggi h: 07:00 coperto Coperto 8 6 87 1019 10 N/NE 7.4
Oggi h: 06:00 coperto Coperto 8 6 87 1019 10 N/NE 13
Oggi h: 05:00 coperto Coperto 8 6 87 1020 10 N/NE 11.1
Oggi h: 04:00 coperto Coperto 8 6 87 1020 10 N/NE 11.1
Oggi h: 03:00 coperto Coperto 8 6 87 1020 10 N 1.8
Oggi h: 02:00 coperto Coperto 8 6 87 1021 10 N/NE 7.4
Oggi h: 01:00 coperto Coperto 8 6 87 1021 10 NE 13
Oggi h: 00:00 coperto Coperto 7 6 93 1022 10 N 3.7
Ieri h: 23:00 coperto Coperto 8 6 87 1023 10 N 5.5
Ieri h: 22:00 coperto Coperto 7 6 93 1023 10 N 3.7
Ieri h: 21:00 coperto Coperto 7 6 93 1022 10 N 1.8
Ieri h: 19:00 molto_nuvoloso Molto Nuvoloso 9 6 81 1022 10 N/NE 9.3
Ieri h: 18:00 nuvoloso_piovaschi Pioggia 10 7 81 1022 7 N/NO 11.1
Ieri h: 17:00 coperto Coperto 10 5 71 1022 10 N/NO 11.1
Ieri h: 16:00 nuvoloso_piovaschi Pioggia 11 5 66 1022 10 NO 20.3
Ieri h: 15:00 molto_nuvoloso Molto Nuvoloso 10 7 81 1021 10 N/NO 14.8